sensor_id;sensor_type;location;lat;lon;timestamp;P1;durP1;ratioP1;P2;durP2;ratioP2
75928;SDS011;64606;44.062;2.986;2023-10-08T00:01:15;8.27;;;2.05;;
75928;SDS011;64606;44.062;2.986;2023-10-08T00:03:45;8.50;;;1.55;;
75928;SDS011;64606;44.062;2.986;2023-10-08T00:06:16;7.10;;;2.05;;
75928;SDS011;64606;44.062;2.986;2023-10-08T00:08:44;6.30;;;1.63;;
75928;SDS011;64606;44.062;2.986;2023-10-08T00:11:10;5.18;;;1.65;;
75928;SDS011;64606;44.062;2.986;2023-10-08T00:13:37;4.93;;;2.03;;
75928;SDS011;64606;44.062;2.986;2023-10-08T00:16:07;3.38;;;1.60;;
75928;SDS011;64606;44.062;2.986;2023-10-08T00:18:37;3.95;;;2.13;;
75928;SDS011;64606;44.062;2.986;2023-10-08T00:21:06;5.25;;;1.67;;
75928;SDS011;64606;44.062;2.986;2023-10-08T00:23:35;3.08;;;1.48;;
75928;SDS011;64606;44.062;2.986;2023-10-08T00:26:22;5.22;;;1.70;;
75928;SDS011;64606;44.062;2.986;2023-10-08T00:28:57;3.78;;;1.83;;
75928;SDS011;64606;44.062;2.986;2023-10-08T00:31:31;3.00;;;1.60;;
75928;SDS011;64606;44.062;2.986;2023-10-08T00:34:03;3.35;;;1.50;;
75928;SDS011;64606;44.062;2.986;2023-10-08T00:36:36;5.72;;;1.48;;
75928;SDS011;64606;44.062;2.986;2023-10-08T00:39:03;7.10;;;1.65;;
75928;SDS011;64606;44.062;2.986;2023-10-08T00:41:33;4.28;;;1.67;;
75928;SDS011;64606;44.062;2.986;2023-10-08T00:43:59;5.75;;;1.70;;
75928;SDS011;64606;44.062;2.986;2023-10-08T00:46:26;4.53;;;1.80;;
75928;SDS011;64606;44.062;2.986;2023-10-08T00:48:56;5.35;;;1.95;;
75928;SDS011;64606;44.062;2.986;2023-10-08T00:51:24;4.22;;;1.50;;
75928;SDS011;64606;44.062;2.986;2023-10-08T00:53:52;4.95;;;1.80;;
75928;SDS011;64606;44.062;2.986;2023-10-08T00:56:24;6.80;;;1.75;;
75928;SDS011;64606;44.062;2.986;2023-10-08T00:58:51;6.47;;;1.88;;
75928;SDS011;64606;44.062;2.986;2023-10-08T01:01:19;4.53;;;1.73;;
75928;SDS011;64606;44.062;2.986;2023-10-08T01:03:48;7.30;;;1.85;;
75928;SDS011;64606;44.062;2.986;2023-10-08T01:06:15;8.25;;;2.00;;
75928;SDS011;64606;44.062;2.986;2023-10-08T01:08:44;4.80;;;1.90;;
75928;SDS011;64606;44.062;2.986;2023-10-08T01:11:21;7.53;;;2.28;;
75928;SDS011;64606;44.062;2.986;2023-10-08T01:14:07;5.95;;;1.90;;
75928;SDS011;64606;44.062;2.986;2023-10-08T01:16:34;4.28;;;1.92;;
75928;SDS011;64606;44.062;2.986;2023-10-08T01:19:00;5.25;;;1.55;;
75928;SDS011;64606;44.062;2.986;2023-10-08T01:21:29;3.17;;;1.40;;
75928;SDS011;64606;44.062;2.986;2023-10-08T01:24:04;3.65;;;1.63;;
75928;SDS011;64606;44.062;2.986;2023-10-08T01:26:32;4.30;;;1.23;;
75928;SDS011;64606;44.062;2.986;2023-10-08T01:28:59;3.45;;;1.50;;
75928;SDS011;64606;44.062;2.986;2023-10-08T01:31:31;4.60;;;1.85;;
75928;SDS011;64606;44.062;2.986;2023-10-08T01:33:58;4.75;;;2.08;;
75928;SDS011;64606;44.062;2.986;2023-10-08T01:36:25;4.75;;;2.15;;
75928;SDS011;64606;44.062;2.986;2023-10-08T01:38:51;5.53;;;1.90;;
75928;SDS011;64606;44.062;2.986;2023-10-08T01:41:19;6.28;;;1.80;;
75928;SDS011;64606;44.062;2.986;2023-10-08T01:43:55;5.68;;;1.88;;
75928;SDS011;64606;44.062;2.986;2023-10-08T01:46:23;8.88;;;1.98;;
75928;SDS011;64606;44.062;2.986;2023-10-08T01:48:50;3.92;;;1.88;;
75928;SDS011;64606;44.062;2.986;2023-10-08T01:51:18;4.75;;;2.05;;
75928;SDS011;64606;44.062;2.986;2023-10-08T01:53:51;6.45;;;2.15;;
75928;SDS011;64606;44.062;2.986;2023-10-08T01:56:19;5.03;;;1.77;;
75928;SDS011;64606;44.062;2.986;2023-10-08T01:58:45;4.32;;;1.80;;
75928;SDS011;64606;44.062;2.986;2023-10-08T02:01:11;4.93;;;1.85;;
75928;SDS011;64606;44.062;2.986;2023-10-08T02:03:38;6.55;;;2.33;;
75928;SDS011;64606;44.062;2.986;2023-10-08T02:06:06;5.60;;;1.75;;
75928;SDS011;64606;44.062;2.986;2023-10-08T02:08:33;4.80;;;1.98;;
75928;SDS011;64606;44.062;2.986;2023-10-08T02:10:59;3.80;;;1.80;;
75928;SDS011;64606;44.062;2.986;2023-10-08T02:13:27;6.20;;;1.98;;
75928;SDS011;64606;44.062;2.986;2023-10-08T02:15:53;5.40;;;2.05;;
75928;SDS011;64606;44.062;2.986;2023-10-08T02:18:20;4.80;;;1.90;;
75928;SDS011;64606;44.062;2.986;2023-10-08T02:20:50;4.72;;;2.42;;
75928;SDS011;64606;44.062;2.986;2023-10-08T02:23:19;6.25;;;2.03;;
75928;SDS011;64606;44.062;2.986;2023-10-08T02:25:45;4.03;;;1.52;;
75928;SDS011;64606;44.062;2.986;2023-10-08T02:28:13;7.97;;;1.67;;
75928;SDS011;64606;44.062;2.986;2023-10-08T02:30:41;10.07;;;1.90;;
75928;SDS011;64606;44.062;2.986;2023-10-08T02:33:07;3.85;;;1.60;;
75928;SDS011;64606;44.062;2.986;2023-10-08T02:35:42;4.65;;;1.90;;
75928;SDS011;64606;44.062;2.986;2023-10-08T02:38:11;9.95;;;2.10;;
75928;SDS011;64606;44.062;2.986;2023-10-08T02:40:38;5.53;;;2.17;;
75928;SDS011;64606;44.062;2.986;2023-10-08T02:43:10;7.47;;;2.10;;
75928;SDS011;64606;44.062;2.986;2023-10-08T02:45:36;4.53;;;1.80;;
75928;SDS011;64606;44.062;2.986;2023-10-08T02:48:06;4.40;;;1.80;;
75928;SDS011;64606;44.062;2.986;2023-10-08T02:50:38;7.45;;;1.92;;
75928;SDS011;64606;44.062;2.986;2023-10-08T02:53:05;5.75;;;1.75;;
75928;SDS011;64606;44.062;2.986;2023-10-08T02:55:36;5.95;;;1.80;;
75928;SDS011;64606;44.062;2.986;2023-10-08T02:58:07;3.40;;;1.63;;
75928;SDS011;64606;44.062;2.986;2023-10-08T03:00:39;4.47;;;1.83;;
75928;SDS011;64606;44.062;2.986;2023-10-08T03:03:06;8.88;;;1.95;;
75928;SDS011;64606;44.062;2.986;2023-10-08T03:08:08;4.28;;;1.75;;
75928;SDS011;64606;44.062;2.986;2023-10-08T03:10:40;4.15;;;1.85;;
75928;SDS011;64606;44.062;2.986;2023-10-08T03:13:09;5.10;;;2.08;;
75928;SDS011;64606;44.062;2.986;2023-10-08T03:15:38;5.25;;;1.88;;
75928;SDS011;64606;44.062;2.986;2023-10-08T03:18:05;4.50;;;1.88;;
75928;SDS011;64606;44.062;2.986;2023-10-08T03:20:40;4.93;;;1.95;;
75928;SDS011;64606;44.062;2.986;2023-10-08T03:23:14;8.30;;;2.22;;
75928;SDS011;64606;44.062;2.986;2023-10-08T03:25:58;6.65;;;1.95;;
75928;SDS011;64606;44.062;2.986;2023-10-08T03:28:53;9.70;;;2.03;;
75928;SDS011;64606;44.062;2.986;2023-10-08T03:31:23;5.55;;;1.70;;
75928;SDS011;64606;44.062;2.986;2023-10-08T03:34:09;4.53;;;1.55;;
75928;SDS011;64606;44.062;2.986;2023-10-08T03:36:38;7.35;;;2.08;;
75928;SDS011;64606;44.062;2.986;2023-10-08T03:39:11;4.60;;;1.88;;
75928;SDS011;64606;44.062;2.986;2023-10-08T03:41:41;4.90;;;1.83;;
75928;SDS011;64606;44.062;2.986;2023-10-08T03:44:08;5.55;;;1.98;;
75928;SDS011;64606;44.062;2.986;2023-10-08T03:46:41;5.27;;;1.93;;
75928;SDS011;64606;44.062;2.986;2023-10-08T03:49:11;5.80;;;2.00;;
75928;SDS011;64606;44.062;2.986;2023-10-08T03:51:43;5.13;;;2.00;;
75928;SDS011;64606;44.062;2.986;2023-10-08T03:54:10;6.85;;;1.95;;
75928;SDS011;64606;44.062;2.986;2023-10-08T03:56:39;7.35;;;1.63;;
75928;SDS011;64606;44.062;2.986;2023-10-08T03:59:11;5.38;;;1.83;;
75928;SDS011;64606;44.062;2.986;2023-10-08T04:01:45;2.80;;;1.60;;
75928;SDS011;64606;44.062;2.986;2023-10-08T04:04:14;4.43;;;1.83;;
75928;SDS011;64606;44.062;2.986;2023-10-08T04:06:43;4.45;;;2.10;;
75928;SDS011;64606;44.062;2.986;2023-10-08T04:09:19;5.32;;;1.88;;
75928;SDS011;64606;44.062;2.986;2023-10-08T04:11:45;6.13;;;2.00;;
75928;SDS011;64606;44.062;2.986;2023-10-08T04:14:23;6.13;;;2.03;;
75928;SDS011;64606;44.062;2.986;2023-10-08T04:16:50;5.10;;;2.00;;
75928;SDS011;64606;44.062;2.986;2023-10-08T04:19:17;6.35;;;1.90;;
75928;SDS011;64606;44.062;2.986;2023-10-08T04:21:43;6.50;;;2.03;;
75928;SDS011;64606;44.062;2.986;2023-10-08T04:24:11;4.68;;;1.95;;
75928;SDS011;64606;44.062;2.986;2023-10-08T04:26:40;5.97;;;1.70;;
75928;SDS011;64606;44.062;2.986;2023-10-08T04:29:06;4.85;;;1.90;;
75928;SDS011;64606;44.062;2.986;2023-10-08T04:31:33;6.93;;;1.75;;
75928;SDS011;64606;44.062;2.986;2023-10-08T04:34:04;4.57;;;1.92;;
75928;SDS011;64606;44.062;2.986;2023-10-08T04:36:47;5.70;;;2.08;;
75928;SDS011;64606;44.062;2.986;2023-10-08T04:39:22;6.25;;;2.20;;
75928;SDS011;64606;44.062;2.986;2023-10-08T04:41:51;5.35;;;1.67;;
75928;SDS011;64606;44.062;2.986;2023-10-08T04:44:19;5.35;;;2.17;;
75928;SDS011;64606;44.062;2.986;2023-10-08T04:46:47;5.32;;;2.40;;
75928;SDS011;64606;44.062;2.986;2023-10-08T04:49:17;5.75;;;2.03;;
75928;SDS011;64606;44.062;2.986;2023-10-08T04:51:59;5.13;;;2.17;;
75928;SDS011;64606;44.062;2.986;2023-10-08T04:54:26;5.85;;;1.63;;
75928;SDS011;64606;44.062;2.986;2023-10-08T04:56:58;4.45;;;1.98;;
75928;SDS011;64606;44.062;2.986;2023-10-08T04:59:25;7.60;;;2.28;;
75928;SDS011;64606;44.062;2.986;2023-10-08T05:02:01;4.35;;;1.92;;
75928;SDS011;64606;44.062;2.986;2023-10-08T05:04:52;6.25;;;2.05;;
75928;SDS011;64606;44.062;2.986;2023-10-08T05:07:32;5.68;;;2.13;;
75928;SDS011;64606;44.062;2.986;2023-10-08T05:10:11;5.78;;;2.20;;
75928;SDS011;64606;44.062;2.986;2023-10-08T05:12:50;8.52;;;2.10;;
75928;SDS011;64606;44.062;2.986;2023-10-08T05:15:26;4.97;;;1.90;;
75928;SDS011;64606;44.062;2.986;2023-10-08T05:18:06;10.43;;;2.28;;
75928;SDS011;64606;44.062;2.986;2023-10-08T05:20:48;5.05;;;2.10;;
75928;SDS011;64606;44.062;2.986;2023-10-08T05:23:14;11.50;;;2.35;;
75928;SDS011;64606;44.062;2.986;2023-10-08T05:25:47;10.60;;;2.50;;
75928;SDS011;64606;44.062;2.986;2023-10-08T05:28:35;8.90;;;2.50;;
75928;SDS011;64606;44.062;2.986;2023-10-08T05:31:11;6.95;;;2.05;;
75928;SDS011;64606;44.062;2.986;2023-10-08T05:33:41;4.50;;;1.98;;
75928;SDS011;64606;44.062;2.986;2023-10-08T05:36:26;8.30;;;2.38;;
75928;SDS011;64606;44.062;2.986;2023-10-08T05:39:15;9.93;;;2.53;;
75928;SDS011;64606;44.062;2.986;2023-10-08T05:42:00;8.35;;;2.50;;
75928;SDS011;64606;44.062;2.986;2023-10-08T05:44:41;11.07;;;2.17;;
75928;SDS011;64606;44.062;2.986;2023-10-08T05:47:26;32.63;;;5.47;;
75928;SDS011;64606;44.062;2.986;2023-10-08T05:49:58;10.77;;;2.65;;
75928;SDS011;64606;44.062;2.986;2023-10-08T05:52:45;7.03;;;2.65;;
75928;SDS011;64606;44.062;2.986;2023-10-08T05:55:27;11.85;;;2.90;;
75928;SDS011;64606;44.062;2.986;2023-10-08T05:58:08;8.90;;;2.72;;
75928;SDS011;64606;44.062;2.986;2023-10-08T06:00:46;8.98;;;2.33;;
75928;SDS011;64606;44.062;2.986;2023-10-08T06:03:18;8.15;;;2.53;;
75928;SDS011;64606;44.062;2.986;2023-10-08T06:06:06;5.38;;;2.10;;
75928;SDS011;64606;44.062;2.986;2023-10-08T06:08:36;7.40;;;2.20;;
75928;SDS011;64606;44.062;2.986;2023-10-08T06:11:19;7.45;;;2.42;;
75928;SDS011;64606;44.062;2.986;2023-10-08T06:14:04;6.15;;;2.40;;
75928;SDS011;64606;44.062;2.986;2023-10-08T06:16:44;10.77;;;2.47;;
75928;SDS011;64606;44.062;2.986;2023-10-08T06:19:12;5.05;;;1.92;;
75928;SDS011;64606;44.062;2.986;2023-10-08T06:21:39;4.53;;;2.08;;
75928;SDS011;64606;44.062;2.986;2023-10-08T06:24:06;10.13;;;2.70;;
75928;SDS011;64606;44.062;2.986;2023-10-08T06:26:37;7.68;;;2.42;;
75928;SDS011;64606;44.062;2.986;2023-10-08T06:29:10;9.25;;;2.67;;
75928;SDS011;64606;44.062;2.986;2023-10-08T06:31:46;15.88;;;3.70;;
75928;SDS011;64606;44.062;2.986;2023-10-08T06:34:17;13.50;;;3.28;;
75928;SDS011;64606;44.062;2.986;2023-10-08T06:36:46;8.32;;;2.70;;
75928;SDS011;64606;44.062;2.986;2023-10-08T06:39:13;9.27;;;2.63;;
75928;SDS011;64606;44.062;2.986;2023-10-08T06:41:44;15.60;;;3.20;;
75928;SDS011;64606;44.062;2.986;2023-10-08T06:44:11;16.25;;;3.13;;
75928;SDS011;64606;44.062;2.986;2023-10-08T06:46:40;9.27;;;2.45;;
75928;SDS011;64606;44.062;2.986;2023-10-08T06:49:07;8.50;;;2.40;;
75928;SDS011;64606;44.062;2.986;2023-10-08T06:51:37;8.88;;;2.25;;
75928;SDS011;64606;44.062;2.986;2023-10-08T06:54:03;8.20;;;2.85;;
75928;SDS011;64606;44.062;2.986;2023-10-08T06:56:35;6.70;;;2.38;;
75928;SDS011;64606;44.062;2.986;2023-10-08T06:59:01;7.15;;;2.20;;
75928;SDS011;64606;44.062;2.986;2023-10-08T07:01:28;6.68;;;2.47;;
75928;SDS011;64606;44.062;2.986;2023-10-08T07:04:07;9.68;;;2.25;;
75928;SDS011;64606;44.062;2.986;2023-10-08T07:06:46;5.63;;;2.08;;
75928;SDS011;64606;44.062;2.986;2023-10-08T07:09:13;6.43;;;2.08;;
75928;SDS011;64606;44.062;2.986;2023-10-08T07:11:54;8.38;;;2.53;;
75928;SDS011;64606;44.062;2.986;2023-10-08T07:14:22;5.15;;;1.75;;
75928;SDS011;64606;44.062;2.986;2023-10-08T07:16:52;8.45;;;2.10;;
75928;SDS011;64606;44.062;2.986;2023-10-08T07:19:20;5.18;;;2.10;;
75928;SDS011;64606;44.062;2.986;2023-10-08T07:21:48;7.75;;;2.40;;
75928;SDS011;64606;44.062;2.986;2023-10-08T07:24:19;12.57;;;2.95;;
75928;SDS011;64606;44.062;2.986;2023-10-08T07:26:47;6.90;;;2.17;;
75928;SDS011;64606;44.062;2.986;2023-10-08T07:29:15;8.90;;;2.50;;
75928;SDS011;64606;44.062;2.986;2023-10-08T07:31:46;6.47;;;1.80;;
75928;SDS011;64606;44.062;2.986;2023-10-08T07:34:18;4.88;;;2.08;;
75928;SDS011;64606;44.062;2.986;2023-10-08T07:36:50;5.80;;;2.10;;
75928;SDS011;64606;44.062;2.986;2023-10-08T07:39:18;9.82;;;2.25;;
75928;SDS011;64606;44.062;2.986;2023-10-08T07:41:57;7.68;;;1.90;;
75928;SDS011;64606;44.062;2.986;2023-10-08T07:44:24;12.75;;;2.47;;
75928;SDS011;64606;44.062;2.986;2023-10-08T07:46:51;7.65;;;2.80;;
75928;SDS011;64606;44.062;2.986;2023-10-08T07:49:19;7.38;;;2.22;;
75928;SDS011;64606;44.062;2.986;2023-10-08T07:51:45;10.02;;;2.63;;
75928;SDS011;64606;44.062;2.986;2023-10-08T07:54:16;9.05;;;2.30;;
75928;SDS011;64606;44.062;2.986;2023-10-08T07:56:45;12.57;;;2.50;;
75928;SDS011;64606;44.062;2.986;2023-10-08T07:59:11;7.35;;;2.20;;
75928;SDS011;64606;44.062;2.986;2023-10-08T08:01:40;10.57;;;2.80;;
75928;SDS011;64606;44.062;2.986;2023-10-08T08:04:08;7.47;;;2.80;;
75928;SDS011;64606;44.062;2.986;2023-10-08T08:06:36;9.43;;;2.90;;
75928;SDS011;64606;44.062;2.986;2023-10-08T08:09:02;9.52;;;3.10;;
75928;SDS011;64606;44.062;2.986;2023-10-08T08:11:34;10.93;;;2.63;;
75928;SDS011;64606;44.062;2.986;2023-10-08T08:14:02;12.18;;;2.88;;
75928;SDS011;64606;44.062;2.986;2023-10-08T08:16:33;5.45;;;2.50;;
75928;SDS011;64606;44.062;2.986;2023-10-08T08:19:01;8.57;;;3.30;;
75928;SDS011;64606;44.062;2.986;2023-10-08T08:21:27;16.33;;;4.43;;
75928;SDS011;64606;44.062;2.986;2023-10-08T08:23:56;16.35;;;3.67;;
75928;SDS011;64606;44.062;2.986;2023-10-08T08:26:30;13.77;;;3.13;;
75928;SDS011;64606;44.062;2.986;2023-10-08T08:29:05;11.27;;;3.15;;
75928;SDS011;64606;44.062;2.986;2023-10-08T08:31:34;9.15;;;2.75;;
75928;SDS011;64606;44.062;2.986;2023-10-08T08:34:02;9.38;;;2.97;;
75928;SDS011;64606;44.062;2.986;2023-10-08T08:36:33;13.60;;;3.53;;
75928;SDS011;64606;44.062;2.986;2023-10-08T08:39:04;9.90;;;2.55;;
75928;SDS011;64606;44.062;2.986;2023-10-08T08:41:36;7.90;;;2.65;;
75928;SDS011;64606;44.062;2.986;2023-10-08T08:44:02;11.63;;;3.30;;
75928;SDS011;64606;44.062;2.986;2023-10-08T08:46:35;10.25;;;2.95;;
75928;SDS011;64606;44.062;2.986;2023-10-08T08:49:03;7.18;;;2.90;;
75928;SDS011;64606;44.062;2.986;2023-10-08T08:51:30;10.48;;;3.20;;
75928;SDS011;64606;44.062;2.986;2023-10-08T08:53:56;9.23;;;2.92;;
75928;SDS011;64606;44.062;2.986;2023-10-08T08:56:25;10.70;;;3.63;;
75928;SDS011;64606;44.062;2.986;2023-10-08T08:58:52;12.43;;;3.03;;
75928;SDS011;64606;44.062;2.986;2023-10-08T09:01:18;8.68;;;2.60;;
75928;SDS011;64606;44.062;2.986;2023-10-08T09:03:45;10.27;;;2.40;;
75928;SDS011;64606;44.062;2.986;2023-10-08T09:06:13;8.38;;;3.13;;
75928;SDS011;64606;44.062;2.986;2023-10-08T09:08:39;9.63;;;2.75;;
75928;SDS011;64606;44.062;2.986;2023-10-08T09:11:15;14.35;;;2.60;;
75928;SDS011;64606;44.062;2.986;2023-10-08T09:13:41;9.10;;;2.55;;
75928;SDS011;64606;44.062;2.986;2023-10-08T09:16:11;10.05;;;3.47;;
75928;SDS011;64606;44.062;2.986;2023-10-08T09:18:37;12.20;;;3.40;;
75928;SDS011;64606;44.062;2.986;2023-10-08T09:21:10;10.32;;;2.95;;
75928;SDS011;64606;44.062;2.986;2023-10-08T09:23:40;10.95;;;3.13;;
75928;SDS011;64606;44.062;2.986;2023-10-08T09:28:40;9.70;;;3.10;;
75928;SDS011;64606;44.062;2.986;2023-10-08T09:31:09;7.35;;;2.67;;
75928;SDS011;64606;44.062;2.986;2023-10-08T09:33:36;6.88;;;2.63;;
75928;SDS011;64606;44.062;2.986;2023-10-08T09:36:03;8.05;;;2.67;;
75928;SDS011;64606;44.062;2.986;2023-10-08T09:38:30;8.38;;;3.13;;
75928;SDS011;64606;44.062;2.986;2023-10-08T09:40:58;16.40;;;3.75;;
75928;SDS011;64606;44.062;2.986;2023-10-08T09:43:28;5.38;;;2.58;;
75928;SDS011;64606;44.062;2.986;2023-10-08T09:46:00;23.38;;;3.85;;
75928;SDS011;64606;44.062;2.986;2023-10-08T09:48:30;6.47;;;2.60;;
75928;SDS011;64606;44.062;2.986;2023-10-08T09:50:57;11.60;;;2.60;;
75928;SDS011;64606;44.062;2.986;2023-10-08T09:54:09;10.98;;;2.97;;
75928;SDS011;64606;44.062;2.986;2023-10-08T09:56:14;6.35;;;2.67;;
75928;SDS011;64606;44.062;2.986;2023-10-08T09:58:43;10.20;;;2.67;;
75928;SDS011;64606;44.062;2.986;2023-10-08T10:01:09;7.60;;;2.67;;
75928;SDS011;64606;44.062;2.986;2023-10-08T10:03:36;7.50;;;2.47;;
75928;SDS011;64606;44.062;2.986;2023-10-08T10:06:03;6.20;;;2.25;;
75928;SDS011;64606;44.062;2.986;2023-10-08T10:08:35;9.77;;;2.95;;
75928;SDS011;64606;44.062;2.986;2023-10-08T10:11:01;11.60;;;3.00;;
75928;SDS011;64606;44.062;2.986;2023-10-08T10:13:28;8.18;;;2.80;;
75928;SDS011;64606;44.062;2.986;2023-10-08T10:15:54;5.60;;;2.40;;
75928;SDS011;64606;44.062;2.986;2023-10-08T10:20:53;8.05;;;2.42;;
75928;SDS011;64606;44.062;2.986;2023-10-08T10:23:35;10.00;;;2.53;;
75928;SDS011;64606;44.062;2.986;2023-10-08T10:26:02;9.52;;;2.97;;
75928;SDS011;64606;44.062;2.986;2023-10-08T10:28:28;7.13;;;2.30;;
75928;SDS011;64606;44.062;2.986;2023-10-08T10:30:55;7.43;;;2.70;;
75928;SDS011;64606;44.062;2.986;2023-10-08T10:33:27;6.07;;;2.28;;
75928;SDS011;64606;44.062;2.986;2023-10-08T10:35:55;7.40;;;2.85;;
75928;SDS011;64606;44.062;2.986;2023-10-08T10:38:21;9.43;;;3.53;;
75928;SDS011;64606;44.062;2.986;2023-10-08T10:40:51;9.15;;;3.33;;
75928;SDS011;64606;44.062;2.986;2023-10-08T10:43:24;9.73;;;3.13;;
75928;SDS011;64606;44.062;2.986;2023-10-08T10:46:02;17.13;;;3.45;;
75928;SDS011;64606;44.062;2.986;2023-10-08T10:48:48;7.70;;;2.78;;
75928;SDS011;64606;44.062;2.986;2023-10-08T10:51:22;11.23;;;2.50;;
75928;SDS011;64606;44.062;2.986;2023-10-08T10:53:48;7.85;;;2.60;;
75928;SDS011;64606;44.062;2.986;2023-10-08T10:56:34;7.47;;;2.93;;
75928;SDS011;64606;44.062;2.986;2023-10-08T10:59:08;7.20;;;3.05;;
75928;SDS011;64606;44.062;2.986;2023-10-08T11:01:47;11.23;;;3.00;;
75928;SDS011;64606;44.062;2.986;2023-10-08T11:04:18;8.70;;;3.35;;
75928;SDS011;64606;44.062;2.986;2023-10-08T11:06:46;7.30;;;3.05;;
75928;SDS011;64606;44.062;2.986;2023-10-08T11:09:13;6.85;;;3.00;;
75928;SDS011;64606;44.062;2.986;2023-10-08T11:11:42;9.95;;;3.53;;
75928;SDS011;64606;44.062;2.986;2023-10-08T11:14:11;8.00;;;2.90;;
75928;SDS011;64606;44.062;2.986;2023-10-08T11:16:42;8.95;;;2.67;;
75928;SDS011;64606;44.062;2.986;2023-10-08T11:19:09;14.65;;;4.10;;
75928;SDS011;64606;44.062;2.986;2023-10-08T11:21:53;9.40;;;3.53;;
75928;SDS011;64606;44.062;2.986;2023-10-08T11:24:29;9.15;;;3.35;;
75928;SDS011;64606;44.062;2.986;2023-10-08T11:26:58;6.40;;;3.35;;
75928;SDS011;64606;44.062;2.986;2023-10-08T11:29:47;9.20;;;3.58;;
75928;SDS011;64606;44.062;2.986;2023-10-08T11:32:14;10.32;;;3.42;;
75928;SDS011;64606;44.062;2.986;2023-10-08T11:34:54;7.63;;;3.22;;
75928;SDS011;64606;44.062;2.986;2023-10-08T11:37:27;9.38;;;3.05;;
75928;SDS011;64606;44.062;2.986;2023-10-08T11:39:53;10.98;;;3.90;;
75928;SDS011;64606;44.062;2.986;2023-10-08T11:42:23;8.77;;;3.58;;
75928;SDS011;64606;44.062;2.986;2023-10-08T11:44:58;8.27;;;3.50;;
75928;SDS011;64606;44.062;2.986;2023-10-08T11:47:25;9.27;;;3.55;;
75928;SDS011;64606;44.062;2.986;2023-10-08T11:49:56;8.35;;;3.83;;
75928;SDS011;64606;44.062;2.986;2023-10-08T11:52:42;6.03;;;3.17;;
75928;SDS011;64606;44.062;2.986;2023-10-08T11:55:11;7.70;;;3.53;;
75928;SDS011;64606;44.062;2.986;2023-10-08T11:57:49;11.27;;;3.42;;
75928;SDS011;64606;44.062;2.986;2023-10-08T12:00:17;6.68;;;3.33;;
75928;SDS011;64606;44.062;2.986;2023-10-08T12:02:52;7.63;;;3.72;;
75928;SDS011;64606;44.062;2.986;2023-10-08T12:05:22;6.20;;;3.50;;
75928;SDS011;64606;44.062;2.986;2023-10-08T12:07:49;6.68;;;3.53;;
75928;SDS011;64606;44.062;2.986;2023-10-08T12:10:19;7.25;;;3.38;;
75928;SDS011;64606;44.062;2.986;2023-10-08T12:12:51;8.02;;;3.67;;
75928;SDS011;64606;44.062;2.986;2023-10-08T12:15:23;6.18;;;3.28;;
75928;SDS011;64606;44.062;2.986;2023-10-08T12:17:59;8.55;;;3.58;;
75928;SDS011;64606;44.062;2.986;2023-10-08T12:20:49;6.85;;;3.58;;
75928;SDS011;64606;44.062;2.986;2023-10-08T12:23:16;6.75;;;3.70;;
75928;SDS011;64606;44.062;2.986;2023-10-08T12:25:54;9.23;;;3.67;;
75928;SDS011;64606;44.062;2.986;2023-10-08T12:28:25;10.05;;;3.60;;
75928;SDS011;64606;44.062;2.986;2023-10-08T12:30:54;8.70;;;3.53;;
75928;SDS011;64606;44.062;2.986;2023-10-08T12:33:25;8.98;;;4.10;;
75928;SDS011;64606;44.062;2.986;2023-10-08T12:35:54;8.43;;;3.60;;
75928;SDS011;64606;44.062;2.986;2023-10-08T12:38:23;8.02;;;3.42;;
75928;SDS011;64606;44.062;2.986;2023-10-08T12:40:52;8.05;;;3.53;;
75928;SDS011;64606;44.062;2.986;2023-10-08T12:43:23;8.25;;;3.42;;
75928;SDS011;64606;44.062;2.986;2023-10-08T12:45:52;8.18;;;3.58;;
75928;SDS011;64606;44.062;2.986;2023-10-08T12:48:26;9.00;;;3.15;;
75928;SDS011;64606;44.062;2.986;2023-10-08T12:50:52;9.13;;;3.90;;
75928;SDS011;64606;44.062;2.986;2023-10-08T12:53:22;7.03;;;3.38;;
75928;SDS011;64606;44.062;2.986;2023-10-08T12:56:04;7.95;;;3.83;;
75928;SDS011;64606;44.062;2.986;2023-10-08T12:58:31;11.05;;;3.20;;
75928;SDS011;64606;44.062;2.986;2023-10-08T13:01:04;6.05;;;3.20;;
75928;SDS011;64606;44.062;2.986;2023-10-08T13:03:31;8.98;;;3.42;;
75928;SDS011;64606;44.062;2.986;2023-10-08T13:05:58;7.97;;;3.60;;
75928;SDS011;64606;44.062;2.986;2023-10-08T13:08:30;7.35;;;3.30;;
75928;SDS011;64606;44.062;2.986;2023-10-08T13:11:00;7.65;;;3.50;;
75928;SDS011;64606;44.062;2.986;2023-10-08T13:13:29;5.47;;;3.17;;
75928;SDS011;64606;44.062;2.986;2023-10-08T13:15:56;6.90;;;3.17;;
75928;SDS011;64606;44.062;2.986;2023-10-08T13:18:25;8.48;;;3.50;;
75928;SDS011;64606;44.062;2.986;2023-10-08T13:20:52;6.25;;;3.13;;
75928;SDS011;64606;44.062;2.986;2023-10-08T13:23:18;6.90;;;3.35;;
75928;SDS011;64606;44.062;2.986;2023-10-08T13:25:46;6.43;;;3.20;;
75928;SDS011;64606;44.062;2.986;2023-10-08T13:28:19;6.82;;;3.42;;
75928;SDS011;64606;44.062;2.986;2023-10-08T13:30:46;7.35;;;3.72;;
75928;SDS011;64606;44.062;2.986;2023-10-08T13:33:12;6.95;;;3.20;;
75928;SDS011;64606;44.062;2.986;2023-10-08T13:35:38;10.18;;;3.60;;
75928;SDS011;64606;44.062;2.986;2023-10-08T13:38:04;6.60;;;3.83;;
75928;SDS011;64606;44.062;2.986;2023-10-08T13:40:35;6.18;;;3.50;;
75928;SDS011;64606;44.062;2.986;2023-10-08T13:43:08;6.57;;;3.30;;
75928;SDS011;64606;44.062;2.986;2023-10-08T13:45:37;5.85;;;3.00;;
75928;SDS011;64606;44.062;2.986;2023-10-08T13:48:04;6.20;;;3.40;;
75928;SDS011;64606;44.062;2.986;2023-10-08T13:50:31;7.18;;;3.63;;
75928;SDS011;64606;44.062;2.986;2023-10-08T13:52:57;8.65;;;3.47;;
75928;SDS011;64606;44.062;2.986;2023-10-08T13:55:24;9.02;;;3.60;;
75928;SDS011;64606;44.062;2.986;2023-10-08T13:57:51;4.90;;;3.03;;
75928;SDS011;64606;44.062;2.986;2023-10-08T14:00:17;6.75;;;3.15;;
75928;SDS011;64606;44.062;2.986;2023-10-08T14:02:51;6.53;;;3.40;;
75928;SDS011;64606;44.062;2.986;2023-10-08T14:05:18;7.70;;;3.58;;
75928;SDS011;64606;44.062;2.986;2023-10-08T14:07:49;6.35;;;3.25;;
75928;SDS011;64606;44.062;2.986;2023-10-08T14:10:16;6.65;;;2.95;;
75928;SDS011;64606;44.062;2.986;2023-10-08T14:12:44;8.95;;;3.42;;
75928;SDS011;64606;44.062;2.986;2023-10-08T14:15:14;6.97;;;3.45;;
75928;SDS011;64606;44.062;2.986;2023-10-08T14:17:42;5.18;;;3.03;;
75928;SDS011;64606;44.062;2.986;2023-10-08T14:20:09;6.68;;;3.25;;
75928;SDS011;64606;44.062;2.986;2023-10-08T14:22:38;6.75;;;3.25;;
75928;SDS011;64606;44.062;2.986;2023-10-08T14:25:09;5.88;;;3.38;;
75928;SDS011;64606;44.062;2.986;2023-10-08T14:27:40;6.57;;;3.40;;
75928;SDS011;64606;44.062;2.986;2023-10-08T14:30:09;7.43;;;3.17;;
75928;SDS011;64606;44.062;2.986;2023-10-08T14:32:43;7.80;;;3.45;;
75928;SDS011;64606;44.062;2.986;2023-10-08T14:35:11;6.25;;;3.50;;
75928;SDS011;64606;44.062;2.986;2023-10-08T14:40:41;6.53;;;3.25;;
75928;SDS011;64606;44.062;2.986;2023-10-08T14:43:25;6.17;;;3.17;;
75928;SDS011;64606;44.062;2.986;2023-10-08T14:45:56;7.05;;;3.42;;
75928;SDS011;64606;44.062;2.986;2023-10-08T14:48:24;5.43;;;3.10;;
75928;SDS011;64606;44.062;2.986;2023-10-08T14:50:54;5.50;;;2.83;;
75928;SDS011;64606;44.062;2.986;2023-10-08T14:53:21;5.97;;;2.80;;
75928;SDS011;64606;44.062;2.986;2023-10-08T14:55:49;8.38;;;3.10;;
75928;SDS011;64606;44.062;2.986;2023-10-08T14:58:16;6.88;;;3.00;;
75928;SDS011;64606;44.062;2.986;2023-10-08T15:00:43;7.72;;;3.17;;
75928;SDS011;64606;44.062;2.986;2023-10-08T15:03:10;5.82;;;3.10;;
75928;SDS011;64606;44.062;2.986;2023-10-08T15:05:38;6.93;;;3.00;;
75928;SDS011;64606;44.062;2.986;2023-10-08T15:08:07;7.63;;;3.05;;
75928;SDS011;64606;44.062;2.986;2023-10-08T15:10:35;6.30;;;2.95;;
75928;SDS011;64606;44.062;2.986;2023-10-08T15:13:01;6.53;;;3.00;;
75928;SDS011;64606;44.062;2.986;2023-10-08T15:15:27;5.15;;;2.78;;
75928;SDS011;64606;44.062;2.986;2023-10-08T15:17:59;10.07;;;2.95;;